Time;durP1;ratioP1;P1;durP2;ratioP2;P2;SDS_P1;SDS_P2;PMS_P1;PMS_P2;Temp;Humidity;BMP_temperature;BMP_pressure;BME280_temperature;BME280_humidity;BME280_pressure;Samples;Min_cycle;Max_cycle;Signal;HPM_P1;HPM_P2
2021/05/31 00:00:38;;;;;;;9.50;8.60;;;7.90;62.20;;;;;;5185251;28;20128;-67
2021/05/31 00:03:10;;;;;;;9.30;8.50;;;8.00;61.90;;;;;;5187834;28;20676;-68
2021/05/31 00:05:42;;;;;;;9.02;8.23;;;7.90;62.00;;;;;;5190184;28;20045;-70
2021/05/31 00:08:14;;;;;;;9.80;8.30;;;7.90;62.00;;;;;;5188137;28;20049;-68
2021/05/31 00:10:46;;;;;;;9.02;8.23;;;7.90;62.30;;;;;;5188755;28;20428;-69
2021/05/31 00:13:19;;;;;;;9.85;8.80;;;7.90;61.70;;;;;;5186023;28;20069;-69
2021/05/31 00:15:51;;;;;;;9.05;8.15;;;7.90;62.70;;;;;;5189417;28;20497;-67
2021/05/31 00:18:24;;;;;;;9.77;8.77;;;7.80;62.50;;;;;;5191236;28;20386;-67
2021/05/31 00:20:56;;;;;;;9.32;8.52;;;7.70;63.40;;;;;;5186113;28;20065;-69
2021/05/31 00:23:28;;;;;;;9.80;8.90;;;7.70;64.00;;;;;;5187623;28;20041;-67
2021/05/31 00:26:00;;;;;;;9.90;9.00;;;7.60;63.20;;;;;;5189736;28;20053;-68
2021/05/31 00:28:31;;;;;;;9.35;8.55;;;7.60;62.90;;;;;;5189396;28;20038;-69
2021/05/31 00:31:04;;;;;;;10.55;9.25;;;7.70;62.70;;;;;;5186851;28;20124;-67
2021/05/31 00:33:36;;;;;;;10.00;9.10;;;7.70;63.60;;;;;;5186761;28;20034;-68
2021/05/31 00:36:08;;;;;;;10.60;9.55;;;7.60;63.60;;;;;;5189190;28;20061;-68
2021/05/31 00:38:40;;;;;;;10.60;9.05;;;7.70;63.80;;;;;;5190573;28;20523;-68
2021/05/31 00:41:12;;;;;;;10.00;9.00;;;7.60;63.50;;;;;;5136010;28;1122404;-68
2021/05/31 00:43:44;;;;;;;9.95;9.05;;;7.60;63.70;;;;;;5189178;28;20107;-68
2021/05/31 00:46:16;;;;;;;10.20;9.20;;;7.60;63.60;;;;;;5188755;28;20063;-71
2021/05/31 00:48:48;;;;;;;10.18;9.27;;;7.50;63.20;;;;;;5187201;28;20534;-68
2021/05/31 00:51:20;;;;;;;10.10;9.20;;;7.50;63.70;;;;;;5189190;28;20089;-68
2021/05/31 00:53:52;;;;;;;9.98;9.18;;;7.50;63.20;;;;;;5189073;28;20069;-67
2021/05/31 00:56:24;;;;;;;10.85;9.82;;;7.40;64.40;;;;;;5186804;28;20041;-67
2021/05/31 00:58:56;;;;;;;10.15;9.25;;;7.40;64.00;;;;;;5188308;28;20985;-69
2021/05/31 01:01:28;;;;;;;10.80;9.70;;;7.30;64.00;;;;;;5184040;28;20156;-69
2021/05/31 01:04:01;;;;;;;10.27;9.27;;;7.30;63.90;;;;;;5187163;28;20121;-69
2021/05/31 01:06:37;;;;;;;10.27;9.27;;;7.30;64.80;;;;;;5170556;28;20069;-70
2021/05/31 01:09:24;;;;;;;10.20;9.30;;;7.30;64.00;;;;;;5172969;28;20049;-67
2021/05/31 01:12:02;;;;;;;10.20;9.30;;;7.30;63.90;;;;;;5187397;28;20046;-67
2021/05/31 01:15:13;;;;;;;11.48;9.30;;;7.30;64.00;;;;;;5188669;28;20051;-68
2021/05/31 01:17:48;;;;;;;;;;;7.20;64.30;;;;;;5186315;28;20076;-67
2021/05/31 01:20:33;;;;;;;10.80;9.70;;;7.20;64.80;;;;;;5185963;28;19931;-68
2021/05/31 01:23:10;;;;;;;10.50;9.50;;;7.20;64.30;;;;;;5187562;28;20505;-68
2021/05/31 01:26:01;;;;;;;10.90;9.80;;;7.20;64.20;;;;;;5189279;28;20045;-67
2021/05/31 01:29:05;;;;;;;10.73;9.73;;;7.20;64.70;;;;;;5185373;28;20034;-69
2021/05/31 01:31:47;;;;;;;10.25;9.25;;;7.10;64.90;;;;;;5184260;28;20104;-69
2021/05/31 01:34:26;;;;;;;9.77;8.88;;;7.10;65.20;;;;;;5188359;28;20033;-68
2021/05/31 01:37:21;;;;;;;9.63;8.73;;;7.10;64.20;;;;;;5187232;28;20049;-67
2021/05/31 01:39:56;;;;;;;10.23;9.23;;;7.10;63.60;;;;;;5189969;28;20115;-69
2021/05/31 01:42:29;;;;;;;10.07;9.18;;;7.10;64.30;;;;;;5185635;28;20042;-68
2021/05/31 01:45:02;;;;;;;10.27;9.38;;;7.00;64.70;;;;;;5188113;28;20092;-68
2021/05/31 01:47:34;;;;;;;10.05;9.05;;;7.00;64.40;;;;;;5188401;28;20095;-67
2021/05/31 01:50:10;;;;;;;12.20;9.23;;;7.00;65.20;;;;;;5189888;28;20626;-68
2021/05/31 01:52:44;;;;;;;10.38;9.38;;;6.90;66.30;;;;;;5190164;28;20088;-67
2021/05/31 01:55:16;;;;;;;10.70;9.60;;;6.80;65.30;;;;;;5185925;28;20116;-70
2021/05/31 01:57:49;;;;;;;9.88;9.05;;;6.80;65.40;;;;;;5189735;28;20045;-69
2021/05/31 02:00:22;;;;;;;10.02;9.13;;;6.70;66.20;;;;;;5185440;28;20444;-67
2021/05/31 02:02:54;;;;;;;10.57;9.63;;;6.70;66.60;;;;;;5185693;28;20479;-67
2021/05/31 02:05:26;;;;;;;10.82;9.73;;;6.70;65.40;;;;;;5185075;28;20140;-66
2021/05/31 02:07:58;;;;;;;10.07;9.18;;;6.70;67.00;;;;;;5187448;28;20041;-67
2021/05/31 02:10:30;;;;;;;10.38;9.38;;;6.70;65.80;;;;;;5185550;28;20134;-67
2021/05/31 02:13:04;;;;;;;9.85;8.95;;;6.70;66.40;;;;;;5186348;28;20658;-67
2021/05/31 02:15:36;;;;;;;10.45;9.45;;;6.70;65.80;;;;;;5175796;28;20888;-68
2021/05/31 02:18:19;;;;;;;9.80;8.93;;;6.70;65.70;;;;;;5171468;28;20045;-67
2021/05/31 02:21:03;;;;;;;10.10;9.20;;;6.70;66.10;;;;;;5186088;28;20666;-67
2021/05/31 02:23:36;;;;;;;10.75;9.13;;;6.60;66.30;;;;;;5186270;28;20125;-67
2021/05/31 02:26:15;;;;;;;10.35;9.32;;;6.60;66.10;;;;;;5169688;28;20084;-67
2021/05/31 02:28:48;;;;;;;9.80;8.90;;;6.60;66.20;;;;;;5187236;28;20099;-68
2021/05/31 02:31:20;;;;;;;10.45;9.50;;;6.60;66.80;;;;;;5185006;28;20113;-67
2021/05/31 02:33:52;;;;;;;9.88;8.98;;;6.60;67.30;;;;;;5186410;28;20124;-67
2021/05/31 02:36:24;;;;;;;9.85;8.85;;;6.60;66.60;;;;;;5170984;28;20832;-67
2021/05/31 02:38:56;;;;;;;10.35;9.35;;;6.50;66.90;;;;;;5168825;28;20053;-67
2021/05/31 02:41:28;;;;;;;10.57;9.30;;;6.50;66.60;;;;;;5185449;28;20041;-68
2021/05/31 02:44:00;;;;;;;10.18;9.18;;;6.50;65.80;;;;;;5171260;28;20197;-69
2021/05/31 02:46:32;;;;;;;10.15;9.25;;;6.50;66.00;;;;;;5184761;28;20125;-69
2021/05/31 02:49:06;;;;;;;10.38;9.30;;;6.50;66.40;;;;;;5187979;28;20048;-68
2021/05/31 02:51:38;;;;;;;10.27;9.27;;;6.50;66.30;;;;;;5184685;28;20132;-67
2021/05/31 02:54:12;;;;;;;10.10;9.20;;;6.40;66.30;;;;;;5185072;28;20046;-67
2021/05/31 02:56:44;;;;;;;9.50;8.60;;;6.40;66.20;;;;;;5175252;28;20132;-67
2021/05/31 02:59:16;;;;;;;10.00;9.10;;;6.30;66.30;;;;;;5186973;28;20049;-69
2021/05/31 03:01:48;;;;;;;9.70;8.80;;;6.30;66.30;;;;;;5176173;28;20041;-68
2021/05/31 03:04:20;;;;;;;9.20;8.32;;;6.30;66.20;;;;;;5186918;28;20038;-72
2021/05/31 03:06:53;;;;;;;8.88;8.07;;;6.30;67.30;;;;;;5183099;28;20048;-73
2021/05/31 03:09:26;;;;;;;9.45;8.40;;;6.30;67.30;;;;;;5171237;28;20112;-71
2021/05/31 03:11:58;;;;;;;9.90;8.90;;;6.20;66.60;;;;;;5184435;28;20049;-72
2021/05/31 03:14:30;;;;;;;9.38;8.43;;;6.20;66.90;;;;;;5184366;28;20113;-73
2021/05/31 03:17:02;;;;;;;9.50;8.60;;;6.20;67.60;;;;;;5186161;28;20132;-72
2021/05/31 03:19:34;;;;;;;9.48;8.50;;;6.20;66.50;;;;;;5186842;28;20417;-72
2021/05/31 03:22:06;;;;;;;9.38;8.48;;;6.20;66.40;;;;;;5184335;28;20054;-74
2021/05/31 03:24:38;;;;;;;9.15;8.25;;;6.20;66.10;;;;;;5184444;28;20449;-73
2021/05/31 03:27:10;;;;;;;9.90;8.43;;;6.20;66.80;;;;;;5184580;28;20069;-73
2021/05/31 03:29:42;;;;;;;9.57;8.40;;;6.10;67.50;;;;;;5186035;28;20520;-73
2021/05/31 03:32:13;;;;;;;9.73;8.80;;;6.10;68.00;;;;;;5184653;28;20169;-73
2021/05/31 03:34:45;;;;;;;9.48;8.57;;;6.00;68.60;;;;;;5184368;28;20037;-76
2021/05/31 03:37:17;;;;;;;10.45;8.98;;;5.90;69.20;;;;;;5185845;28;20046;-74
2021/05/31 03:39:49;;;;;;;9.52;8.63;;;5.90;69.30;;;;;;5185328;28;20057;-73
2021/05/31 03:42:21;;;;;;;10.52;9.48;;;5.90;69.10;;;;;;5168647;28;20050;-73
2021/05/31 03:44:53;;;;;;;9.65;8.65;;;6.00;69.10;;;;;;5186338;28;20124;-73
2021/05/31 03:47:25;;;;;;;9.27;8.38;;;6.00;68.90;;;;;;5182590;28;20497;-73
2021/05/31 03:49:57;;;;;;;9.45;8.63;;;6.00;68.20;;;;;;5170132;28;20033;-73
2021/05/31 03:52:29;;;;;;;9.82;8.90;;;6.00;68.30;;;;;;5186661;28;20081;-73
2021/05/31 03:55:02;;;;;;;8.88;7.97;;;6.10;68.30;;;;;;5187525;28;20041;-73
2021/05/31 03:57:36;;;;;;;10.30;8.30;;;6.00;68.30;;;;;;5186877;28;20500;-73
2021/05/31 04:00:10;;;;;;;10.02;8.75;;;6.00;68.20;;;;;;5172597;28;20132;-74
2021/05/31 04:02:43;;;;;;;8.93;8.10;;;6.00;68.30;;;;;;5187993;28;20069;-72
2021/05/31 04:05:15;;;;;;;9.10;8.30;;;6.00;68.20;;;;;;5186424;28;20050;-72
2021/05/31 04:13:29;;;;;;;9.10;8.30;;;6.00;68.10;;;;;;5182780;28;20497;-72
2021/05/31 04:16:01;;;;;;;10.60;8.25;;;6.10;68.20;;;;;;5186090;28;20412;-71
2021/05/31 04:18:34;;;;;;;9.65;8.75;;;6.00;68.60;;;;;;5184492;28;20099;-71
2021/05/31 04:21:05;;;;;;;9.73;8.73;;;6.00;68.90;;;;;;5184859;28;20042;-72
2021/05/31 04:23:37;;;;;;;9.13;8.23;;;5.90;69.10;;;;;;5187827;28;20046;-72
2021/05/31 04:26:09;;;;;;;10.20;8.85;;;6.00;69.50;;;;;;5189193;28;20096;-71
2021/05/31 04:28:41;;;;;;;10.02;7.68;;;5.90;69.60;;;;;;5190438;28;20525;-73
2021/05/31 04:31:13;;;;;;;10.63;8.45;;;6.00;69.00;;;;;;5188706;28;20053;-70
2021/05/31 04:33:45;;;;;;;9.32;8.43;;;6.00;68.80;;;;;;5191036;28;20428;-70
2021/05/31 04:36:18;;;;;;;9.40;8.52;;;6.00;70.40;;;;;;5186164;28;20139;-72
2021/05/31 04:38:50;;;;;;;9.73;8.82;;;6.10;69.60;;;;;;5188822;28;20107;-70
2021/05/31 04:41:22;;;;;;;10.90;8.65;;;6.30;69.80;;;;;;5188741;28;20045;-72
2021/05/31 04:43:54;;;;;;;10.02;9.02;;;6.40;69.80;;;;;;5189978;28;20124;-71
2021/05/31 04:46:26;;;;;;;9.63;8.65;;;6.50;70.40;;;;;;5190908;28;20050;-71
2021/05/31 04:49:01;;;;;;;10.30;9.00;;;6.70;70.30;;;;;;5190654;28;20044;-69
2021/05/31 04:51:33;;;;;;;10.05;9.10;;;6.80;69.80;;;;;;5169251;28;20623;-69
2021/05/31 04:54:05;;;;;;;10.23;9.23;;;6.90;69.90;;;;;;5179139;28;20046;-71
2021/05/31 04:56:37;;;;;;;10.48;9.48;;;7.10;70.00;;;;;;5188286;28;20119;-70
2021/05/31 04:59:09;;;;;;;10.43;9.43;;;7.10;70.10;;;;;;5190383;28;20074;-69
2021/05/31 05:01:41;;;;;;;10.43;9.25;;;7.30;69.10;;;;;;5185973;28;20111;-69
2021/05/31 05:04:13;;;;;;;9.70;8.80;;;7.40;68.40;;;;;;5184900;28;20124;-69
2021/05/31 05:06:45;;;;;;;9.80;8.80;;;7.60;68.00;;;;;;5189155;28;20063;-69
2021/05/31 05:09:17;;;;;;;10.65;9.55;;;7.60;67.90;;;;;;5185266;28;20781;-68
2021/05/31 05:11:49;;;;;;;11.25;10.15;;;7.70;67.80;;;;;;5186026;28;20128;-69
2021/05/31 05:14:21;;;;;;;10.57;9.57;;;7.80;67.60;;;;;;5185824;28;20043;-69
2021/05/31 05:16:52;;;;;;;10.85;9.75;;;8.00;67.20;;;;;;5187171;28;20104;-70
2021/05/31 05:19:24;;;;;;;10.38;9.38;;;8.10;67.10;;;;;;5190253;28;20065;-69
2021/05/31 05:21:56;;;;;;;10.70;9.70;;;8.20;66.90;;;;;;5187922;28;20049;-70
2021/05/31 05:24:29;;;;;;;12.85;10.10;;;8.30;66.10;;;;;;5186197;28;20037;-69
2021/05/31 05:27:06;;;;;;;10.63;8.95;;;8.40;65.30;;;;;;5186938;28;20105;-70
2021/05/31 05:29:38;;;;;;;10.93;9.82;;;8.50;66.00;;;;;;5189255;28;20129;-70
2021/05/31 05:32:12;;;;;;;11.30;9.68;;;8.70;65.10;;;;;;5189652;28;20594;-69
2021/05/31 05:34:44;;;;;;;10.80;9.80;;;8.80;64.40;;;;;;5186271;28;20139;-72
2021/05/31 05:37:29;;;;;;;10.23;9.35;;;8.90;65.80;;;;;;5186540;28;20092;-70
2021/05/31 05:48:03;;;;;;;11.48;10.30;;;9.50;63.10;;;;;;5172906;28;20135;-70
2021/05/31 05:50:35;;;;;;;11.13;10.02;;;9.70;63.10;;;;;;5172967;28;20073;-70
2021/05/31 05:53:07;;;;;;;11.35;10.25;;;9.80;62.40;;;;;;5185910;28;20472;-70
2021/05/31 05:55:39;;;;;;;11.80;10.55;;;10.00;61.90;;;;;;5184896;28;20042;-70
2021/05/31 05:58:11;;;;;;;11.32;10.23;;;10.10;64.10;;;;;;5183552;28;20049;-70
2021/05/31 06:00:43;;;;;;;11.65;10.45;;;10.30;61.90;;;;;;5172809;28;20125;-70
2021/05/31 06:03:15;;;;;;;11.32;10.18;;;10.40;63.20;;;;;;5186377;28;20060;-70
2021/05/31 06:05:47;;;;;;;11.82;10.80;;;10.50;60.60;;;;;;5183309;28;20057;-71
2021/05/31 06:08:19;;;;;;;11.15;10.13;;;10.60;62.70;;;;;;5188599;28;20096;-70
2021/05/31 06:10:51;;;;;;;11.90;10.80;;;10.70;62.70;;;;;;5188858;28;20344;-70
2021/05/31 06:13:24;;;;;;;11.00;10.00;;;10.80;60.60;;;;;;5192546;28;20550;-70
2021/05/31 06:16:00;;;;;;;11.00;10.10;;;10.90;58.90;;;;;;5184279;28;20069;-70
2021/05/31 06:18:33;;;;;;;16.17;11.00;;;11.00;59.90;;;;;;5186598;28;20044;-70
2021/05/31 06:21:06;;;;;;;11.90;10.45;;;11.00;61.10;;;;;;5187497;28;20104;-69
2021/05/31 06:23:38;;;;;;;12.10;10.60;;;11.20;62.00;;;;;;5187162;28;20048;-70
2021/05/31 06:26:09;;;;;;;11.75;10.60;;;11.40;63.20;;;;;;5187494;28;20175;-70
2021/05/31 06:28:42;;;;;;;12.73;10.90;;;11.50;58.30;;;;;;5188945;28;20100;-70
2021/05/31 06:31:14;;;;;;;12.32;10.48;;;11.60;62.50;;;;;;5169801;28;20058;-70
2021/05/31 06:33:46;;;;;;;12.07;11.00;;;11.80;63.60;;;;;;5189051;28;20041;-70
2021/05/31 06:36:18;;;;;;;12.10;11.00;;;11.90;62.10;;;;;;5170020;28;20052;-70
2021/05/31 06:38:50;;;;;;;11.10;10.10;;;12.10;62.60;;;;;;5185646;28;20045;-70
2021/05/31 06:41:22;;;;;;;11.30;10.20;;;12.20;59.10;;;;;;5183755;28;20682;-70
2021/05/31 06:43:54;;;;;;;11.85;10.68;;;12.40;61.60;;;;;;5183951;28;20119;-70
2021/05/31 06:46:26;;;;;;;11.73;10.73;;;12.50;61.50;;;;;;5184442;28;20045;-70
2021/05/31 06:48:58;;;;;;;11.93;10.73;;;12.60;59.00;;;;;;5182930;28;20052;-70
2021/05/31 06:51:32;;;;;;;11.95;10.80;;;12.70;61.60;;;;;;5182283;28;20038;-71
2021/05/31 06:54:04;;;;;;;12.20;11.10;;;12.80;61.00;;;;;;5186549;28;20456;-70
2021/05/31 06:56:36;;;;;;;11.90;10.80;;;12.90;59.90;;;;;;5184834;28;20132;-70
2021/05/31 06:59:08;;;;;;;11.70;10.77;;;13.00;59.80;;;;;;5187224;28;20076;-70
2021/05/31 07:01:40;;;;;;;12.82;11.43;;;13.10;57.20;;;;;;5187063;28;20041;-70
2021/05/31 07:04:13;;;;;;;12.02;10.85;;;13.10;55.10;;;;;;5168805;28;20398;-70
2021/05/31 07:06:46;;;;;;;12.43;11.23;;;13.20;54.70;;;;;;5186702;28;20073;-71
2021/05/31 07:09:17;;;;;;;12.10;11.10;;;13.30;56.30;;;;;;5183567;28;20598;-70
2021/05/31 07:11:49;;;;;;;12.45;11.30;;;13.40;56.80;;;;;;5182406;28;20068;-70
2021/05/31 07:14:31;;;;;;;11.75;10.75;;;13.50;58.00;;;;;;5188485;28;20048;-70
2021/05/31 07:17:03;;;;;;;11.90;10.88;;;13.60;52.70;;;;;;5185767;28;20123;-71
2021/05/31 07:19:36;;;;;;;12.70;11.50;;;13.70;53.00;;;;;;5185546;28;20067;-70
2021/05/31 07:22:08;;;;;;;11.93;10.82;;;13.80;55.80;;;;;;5186394;28;20429;-70
2021/05/31 07:24:40;;;;;;;12.77;11.55;;;13.90;57.70;;;;;;5169527;28;20053;-70
2021/05/31 07:27:12;;;;;;;13.80;12.00;;;14.00;55.20;;;;;;5181467;28;20045;-70
2021/05/31 07:29:44;;;;;;;12.25;11.07;;;14.10;54.00;;;;;;5187240;28;20096;-70
2021/05/31 07:32:16;;;;;;;11.75;10.63;;;14.10;54.70;;;;;;5184673;28;20145;-70
2021/05/31 07:34:48;;;;;;;12.50;11.20;;;14.20;51.60;;;;;;5184022;28;20069;-70
2021/05/31 07:37:20;;;;;;;12.80;11.43;;;14.30;53.50;;;;;;5182046;28;20077;-71
2021/05/31 07:39:52;;;;;;;12.45;11.30;;;14.40;51.80;;;;;;5182876;28;20046;-70
2021/05/31 07:42:24;;;;;;;12.20;11.20;;;14.40;50.50;;;;;;5183860;28;20074;-70
2021/05/31 07:44:56;;;;;;;12.80;11.60;;;14.50;52.70;;;;;;5185890;28;20127;-70
2021/05/31 07:47:28;;;;;;;12.38;11.10;;;14.60;51.80;;;;;;5186083;28;20075;-71
2021/05/31 07:50:00;;;;;;;11.95;10.93;;;14.70;51.50;;;;;;5183972;28;20115;-70
2021/05/31 07:52:32;;;;;;;12.57;11.48;;;14.90;54.00;;;;;;5175692;28;20124;-72
2021/05/31 07:55:11;;;;;;;12.35;11.05;;;15.00;52.30;;;;;;5185762;28;20104;-70
2021/05/31 07:57:45;;;;;;;12.40;11.35;;;15.10;50.90;;;;;;5186336;28;20081;-70
2021/05/31 08:00:19;;;;;;;12.45;11.35;;;15.10;52.20;;;;;;5153587;28;20151;-71
2021/05/31 08:02:52;;;;;;;12.57;11.30;;;15.20;53.30;;;;;;5187015;28;20127;-71
2021/05/31 08:05:24;;;;;;;12.93;11.80;;;15.20;48.70;;;;;;5187813;28;20092;-70
2021/05/31 08:07:56;;;;;;;12.90;11.77;;;15.30;51.90;;;;;;5189309;28;20048;-71
2021/05/31 08:10:28;;;;;;;12.85;11.70;;;15.50;50.70;;;;;;5190490;28;20665;-71
2021/05/31 08:13:00;;;;;;;13.25;12.05;;;15.50;51.70;;;;;;5187326;28;20457;-70
2021/05/31 08:15:32;;;;;;;13.45;12.20;;;15.60;48.90;;;;;;5185530;28;20501;-71
2021/05/31 08:18:04;;;;;;;12.77;11.77;;;15.80;49.20;;;;;;5174124;28;20046;-70
2021/05/31 08:20:36;;;;;;;13.55;12.32;;;15.80;48.80;;;;;;5187652;28;20390;-71
2021/05/31 08:23:09;;;;;;;12.98;11.73;;;15.90;49.10;;;;;;5190609;28;20524;-71
2021/05/31 08:25:41;;;;;;;13.15;11.95;;;16.00;49.30;;;;;;5188170;28;20137;-72
2021/05/31 08:28:13;;;;;;;13.18;12.07;;;16.10;47.80;;;;;;5188108;28;20037;-70
2021/05/31 08:30:45;;;;;;;12.55;11.45;;;16.20;47.50;;;;;;5187779;28;20093;-69
2021/05/31 08:33:17;;;;;;;12.85;11.68;;;16.20;47.10;;;;;;5172091;28;20104;-70
2021/05/31 08:35:49;;;;;;;13.63;12.02;;;16.30;49.00;;;;;;5187157;28;20467;-70
2021/05/31 08:38:21;;;;;;;12.75;11.45;;;16.40;43.40;;;;;;5188365;28;20092;-70
2021/05/31 08:40:53;;;;;;;12.18;11.18;;;16.50;45.40;;;;;;5189331;28;20108;-70
2021/05/31 08:43:25;;;;;;;11.80;10.80;;;16.40;45.40;;;;;;5186937;28;20065;-70
2021/05/31 08:45:57;;;;;;;12.60;11.60;;;16.50;45.10;;;;;;5185963;28;20541;-71
2021/05/31 08:48:29;;;;;;;12.48;11.38;;;16.60;42.20;;;;;;5187817;28;20049;-70
2021/05/31 08:51:04;;;;;;;12.75;11.55;;;16.70;47.20;;;;;;5187404;28;20046;-71
2021/05/31 08:53:37;;;;;;;11.95;10.93;;;16.80;44.40;;;;;;5185854;28;20453;-71
2021/05/31 08:56:09;;;;;;;12.52;11.02;;;17.00;43.00;;;;;;5174528;28;20447;-70
2021/05/31 08:58:41;;;;;;;12.02;10.95;;;17.00;44.90;;;;;;5188844;28;20050;-70
2021/05/31 09:01:13;;;;;;;12.35;11.35;;;17.10;44.00;;;;;;5166988;28;20049;-70
2021/05/31 09:03:56;;;;;;;16.60;11.52;;;17.20;44.10;;;;;;5187821;28;20524;-71
2021/05/31 09:06:28;;;;;;;12.23;11.20;;;17.30;43.90;;;;;;5185858;28;20092;-71
2021/05/31 09:09:00;;;;;;;12.02;11.02;;;17.40;42.50;;;;;;5187798;28;20072;-70
2021/05/31 09:11:33;;;;;;;12.48;11.48;;;17.50;41.50;;;;;;5187357;28;20497;-70
2021/05/31 09:14:05;;;;;;;12.45;11.45;;;17.50;41.10;;;;;;5187135;28;20096;-70
2021/05/31 09:16:39;;;;;;;12.77;11.68;;;17.60;42.20;;;;;;5172228;28;20444;-70
2021/05/31 09:19:12;;;;;;;12.43;11.43;;;17.70;42.10;;;;;;5189329;28;20124;-70
2021/05/31 09:21:44;;;;;;;12.43;11.43;;;17.80;43.80;;;;;;5184784;28;20133;-70
2021/05/31 09:24:23;;;;;;;13.43;12.00;;;17.80;39.40;;;;;;5188741;28;20111;-71
2021/05/31 09:26:57;;;;;;;12.90;11.80;;;17.80;38.70;;;;;;5189229;28;20049;-70
2021/05/31 09:29:29;;;;;;;13.00;11.93;;;18.00;41.00;;;;;;5186187;28;20181;-72
2021/05/31 09:32:04;;;;;;;12.68;11.68;;;18.00;42.40;;;;;;5186802;28;20648;-71
2021/05/31 09:34:36;;;;;;;13.18;12.05;;;18.10;41.80;;;;;;5184605;28;20049;-71
2021/05/31 09:37:08;;;;;;;12.93;11.93;;;18.10;37.30;;;;;;5187418;28;20057;-71
2021/05/31 09:39:41;;;;;;;13.27;12.18;;;18.10;39.80;;;;;;5185915;28;20111;-70
2021/05/31 09:42:16;;;;;;;13.00;11.90;;;18.20;41.60;;;;;;5186764;28;20131;-70
2021/05/31 09:45:08;;;;;;;12.98;11.70;;;18.30;40.50;;;;;;5176103;28;20136;-70
2021/05/31 09:47:41;;;;;;;13.05;11.88;;;18.40;41.20;;;;;;5189286;28;20517;-71
2021/05/31 09:50:25;;;;;;;13.20;12.10;;;18.40;37.80;;;;;;5172645;28;20106;-71
2021/05/31 09:53:11;;;;;;;12.88;11.88;;;18.50;41.90;;;;;;5188841;28;20068;-70
2021/05/31 09:55:46;;;;;;;12.80;11.80;;;18.60;37.80;;;;;;5187476;28;20536;-72
2021/05/31 09:58:18;;;;;;;12.93;11.82;;;18.70;41.60;;;;;;5187952;28;20061;-70
2021/05/31 10:00:58;;;;;;;12.88;11.88;;;18.80;39.00;;;;;;5169889;28;20046;-70
2021/05/31 10:03:49;;;;;;;;;;;18.80;39.00;;;;;;5185701;28;20117;-71
2021/05/31 10:06:39;;;;;;;13.38;12.25;;;18.90;40.60;;;;;;5187507;28;20003;-71
2021/05/31 10:09:11;;;;;;;13.13;12.13;;;19.00;42.80;;;;;;5174285;28;20087;-71
2021/05/31 10:11:45;;;;;;;13.75;12.45;;;19.00;39.90;;;;;;5184217;28;20049;-72
2021/05/31 10:14:17;;;;;;;13.70;12.60;;;19.10;41.20;;;;;;5170163;28;20041;-70
2021/05/31 10:16:50;;;;;;;13.23;12.02;;;19.20;38.90;;;;;;5184779;28;20033;-71
2021/05/31 10:19:23;;;;;;;13.88;12.68;;;19.20;40.40;;;;;;5187254;28;20046;-71
2021/05/31 10:21:55;;;;;;;13.07;12.05;;;19.40;39.90;;;;;;5184736;28;20049;-71
2021/05/31 10:24:28;;;;;;;13.13;12.00;;;19.40;40.00;;;;;;5184941;28;20103;-70
2021/05/31 10:27:03;;;;;;;12.98;11.98;;;19.40;39.70;;;;;;5186037;28;20107;-70
2021/05/31 10:29:35;;;;;;;13.23;12.23;;;19.50;39.60;;;;;;5179516;28;20115;-70
2021/05/31 10:32:09;;;;;;;13.15;12.00;;;19.50;36.20;;;;;;5171983;28;20517;-71
2021/05/31 10:34:47;;;;;;;13.35;12.07;;;19.60;36.80;;;;;;5187503;28;20037;-70
2021/05/31 10:37:23;;;;;;;12.90;11.88;;;19.60;38.70;;;;;;5185976;28;20614;-71
2021/05/31 10:40:10;;;;;;;13.80;12.60;;;19.60;38.10;;;;;;5185967;28;20099;-70
2021/05/31 10:42:42;;;;;;;13.07;11.95;;;19.70;35.30;;;;;;5186290;28;20107;-71
2021/05/31 10:45:21;;;;;;;13.43;12.32;;;19.80;39.30;;;;;;5186746;28;20049;-70
2021/05/31 10:48:20;;;;;;;13.10;12.07;;;19.80;38.00;;;;;;5185737;28;20464;-72
2021/05/31 10:50:58;;;;;;;12.95;11.95;;;19.90;36.70;;;;;;5185246;28;20888;-71
2021/05/31 10:53:35;;;;;;;12.48;11.50;;;19.90;36.70;;;;;;5168488;28;20087;-71
2021/05/31 10:56:20;;;;;;;12.80;11.80;;;20.00;35.30;;;;;;5186572;28;20045;-70
2021/05/31 10:58:55;;;;;;;12.88;11.82;;;20.00;36.30;;;;;;5187282;28;20033;-71
2021/05/31 11:01:27;;;;;;;13.73;12.63;;;20.10;38.10;;;;;;5184118;28;20072;-72
2021/05/31 11:04:16;;;;;;;13.85;12.65;;;20.20;35.10;;;;;;5184566;28;20619;-71
2021/05/31 11:06:50;;;;;;;13.60;12.52;;;20.30;37.40;;;;;;5186944;28;20067;-70
2021/05/31 11:09:29;;;;;;;14.00;12.88;;;20.40;39.40;;;;;;5186396;28;20037;-71
2021/05/31 11:12:08;;;;;;;13.93;12.73;;;20.60;37.20;;;;;;5182366;28;20041;-71
2021/05/31 11:14:47;;;;;;;14.43;13.00;;;20.60;35.50;;;;;;5185811;28;20096;-70
2021/05/31 11:17:23;;;;;;;13.70;12.45;;;20.60;33.80;;;;;;5175291;28;20476;-71
2021/05/31 11:19:55;;;;;;;13.82;12.70;;;20.50;34.40;;;;;;5185687;28;20038;-71
2021/05/31 11:22:31;;;;;;;14.13;13.00;;;20.60;37.10;;;;;;5183817;28;20049;-71
2021/05/31 11:25:08;;;;;;;14.68;13.20;;;20.60;31.90;;;;;;5185193;28;20041;-71
2021/05/31 11:27:42;;;;;;;13.80;12.68;;;20.60;33.20;;;;;;5184807;28;20559;-71
2021/05/31 11:30:22;;;;;;;13.50;12.40;;;20.60;31.70;;;;;;5187338;28;20030;-72
2021/05/31 11:32:56;;;;;;;13.70;12.50;;;20.60;32.00;;;;;;5184247;28;20038;-72
2021/05/31 11:35:29;;;;;;;13.55;12.45;;;20.70;32.30;;;;;;5187497;28;20096;-71
2021/05/31 11:38:12;;;;;;;13.82;12.63;;;20.80;33.40;;;;;;5190316;28;20050;-73
2021/05/31 11:40:44;;;;;;;13.85;12.55;;;20.90;35.10;;;;;;5188868;28;20121;-73
2021/05/31 11:43:16;;;;;;;13.85;12.73;;;20.90;34.80;;;;;;5191972;28;20037;-73
2021/05/31 11:45:51;;;;;;;13.75;12.75;;;21.10;33.60;;;;;;5192254;28;20457;-72
2021/05/31 11:48:22;;;;;;;13.55;12.43;;;21.10;32.00;;;;;;5173200;28;20038;-72
2021/05/31 11:50:57;;;;;;;14.07;12.88;;;21.30;35.50;;;;;;5189225;28;20050;-72
2021/05/31 11:53:29;;;;;;;14.60;13.18;;;21.30;31.50;;;;;;5187747;28;20429;-72
2021/05/31 11:56:01;;;;;;;13.77;12.55;;;21.30;33.30;;;;;;5190808;28;20054;-73
2021/05/31 11:58:33;;;;;;;13.60;12.48;;;21.40;32.90;;;;;;5188732;28;20045;-73
2021/05/31 12:01:09;;;;;;;13.98;12.77;;;21.30;30.40;;;;;;5189297;28;20081;-72
2021/05/31 12:03:45;;;;;;;14.25;13.13;;;21.30;32.20;;;;;;5189732;28;20057;-72
2021/05/31 12:06:16;;;;;;;13.88;12.63;;;21.30;29.50;;;;;;5191115;28;20065;-73
2021/05/31 12:08:53;;;;;;;13.68;12.43;;;21.30;28.40;;;;;;5189047;28;20073;-73
2021/05/31 12:11:25;;;;;;;13.60;12.45;;;21.40;32.40;;;;;;5186666;28;20050;-73
2021/05/31 12:14:01;;;;;;;13.88;12.77;;;21.50;31.60;;;;;;5173214;28;20069;-72
2021/05/31 12:16:34;;;;;;;14.00;12.70;;;21.60;31.10;;;;;;5188540;28;20463;-72
2021/05/31 12:19:16;;;;;;;13.90;12.70;;;21.60;34.00;;;;;;5190600;28;20127;-73
2021/05/31 12:21:48;;;;;;;13.75;12.65;;;21.70;30.20;;;;;;5186301;28;20125;-74
2021/05/31 12:24:24;;;;;;;14.52;12.98;;;21.70;32.10;;;;;;5186081;28;20103;-72
2021/05/31 12:26:58;;;;;;;14.32;12.98;;;21.80;30.10;;;;;;5189067;28;20061;-71
2021/05/31 12:29:36;;;;;;;13.40;12.40;;;21.80;31.00;;;;;;5190853;28;20118;-75
2021/05/31 12:32:10;;;;;;;13.80;12.80;;;21.80;31.50;;;;;;5188632;28;20058;-72
2021/05/31 12:34:44;;;;;;;13.80;12.70;;;21.90;32.00;;;;;;5188224;28;20088;-73
2021/05/31 12:37:18;;;;;;;14.20;12.77;;;22.00;30.20;;;;;;5189462;28;20052;-73
2021/05/31 12:39:51;;;;;;;14.38;13.07;;;21.90;31.00;;;;;;5188571;28;20049;-73
2021/05/31 12:42:29;;;;;;;13.75;12.75;;;21.90;32.50;;;;;;5169118;28;20074;-73
2021/05/31 12:45:03;;;;;;;13.77;12.68;;;21.90;31.50;;;;;;5187251;28;20049;-73
2021/05/31 12:47:40;;;;;;;14.25;12.95;;;22.00;30.00;;;;;;5187630;28;20111;-74
2021/05/31 12:50:22;;;;;;;14.95;13.45;;;22.00;28.70;;;;;;5195020;28;20073;-73
2021/05/31 12:52:54;;;;;;;14.30;12.98;;;22.10;31.70;;;;;;5189599;28;20099;-72
2021/05/31 12:55:29;;;;;;;14.30;13.10;;;22.00;29.30;;;;;;5186907;28;20065;-71
2021/05/31 12:58:26;;;;;;;14.55;13.45;;;22.20;32.50;;;;;;5189919;28;20500;-72
2021/05/31 13:00:58;;;;;;;13.98;12.98;;;22.30;30.70;;;;;;5187916;28;20646;-72
2021/05/31 13:03:32;;;;;;;14.07;12.68;;;22.40;28.20;;;;;;5189523;28;20056;-71
2021/05/31 13:06:05;;;;;;;14.13;13.00;;;22.30;30.00;;;;;;5188959;28;20095;-71
2021/05/31 13:08:39;;;;;;;14.40;13.20;;;22.40;29.40;;;;;;5188463;28;20736;-70
2021/05/31 13:11:11;;;;;;;14.95;13.68;;;22.40;31.20;;;;;;5187960;28;20521;-70
2021/05/31 13:13:43;;;;;;;15.23;13.95;;;22.50;32.40;;;;;;5189927;28;20440;-70
2021/05/31 13:16:25;;;;;;;15.45;14.15;;;22.50;28.70;;;;;;5172811;28;20128;-70
2021/05/31 13:19:00;;;;;;;23.65;14.15;;;22.50;28.60;;;;;;5187846;28;20044;-70
2021/05/31 13:21:38;;;;;;;14.57;13.35;;;22.40;28.50;;;;;;5188132;28;20049;-72
2021/05/31 13:24:10;;;;;;;15.00;13.80;;;22.40;28.40;;;;;;5176535;28;20049;-70
2021/05/31 13:26:42;;;;;;;14.55;13.45;;;22.50;30.00;;;;;;5190094;28;20041;-71